createdAt,value
2022-12-08T00:01:36.082Z,100239.91
2022-12-08T00:04:05.653Z,100239.06
2022-12-08T00:06:53.555Z,100238.19
2022-12-08T00:09:25.847Z,100237.28
2022-12-08T00:11:57.162Z,100228.56
2022-12-08T00:14:27.907Z,100233.81
2022-12-08T00:16:56.352Z,100232.03
2022-12-08T00:19:25.146Z,100232.94
2022-12-08T00:21:54.062Z,100221.56
2022-12-08T00:24:24.603Z,100228.56
2022-12-08T00:26:52.956Z,100220.69
2022-12-08T00:29:20.963Z,100222.44
2022-12-08T00:31:49.254Z,100224.16
2022-12-08T00:34:17.405Z,100220.69
2022-12-08T00:36:45.857Z,100223.31
2022-12-08T00:39:15.978Z,100212.78
2022-12-08T00:42:03.295Z,100217.19
2022-12-08T00:44:31.343Z,100206.69
2022-12-08T00:46:59.352Z,100205.81
2022-12-08T00:49:27.440Z,100213.69
2022-12-08T00:51:55.531Z,100202.31
2022-12-08T00:54:24.824Z,100202.31
2022-12-08T00:56:54.256Z,100197.94
2022-12-08T00:59:22.365Z,100189.19
2022-12-08T01:01:50.419Z,100196.19
2022-12-08T01:04:20.139Z,100188.28
2022-12-08T01:06:48.555Z,100187.41
2022-12-08T01:09:18.548Z,100193.56
2022-12-08T01:11:47.370Z,100186.56
2022-12-08T01:14:16.715Z,100184.78
2022-12-08T01:16:45.107Z,100184.81
2022-12-08T01:19:15.269Z,100184.78
2022-12-08T01:21:44.275Z,100189.19
2022-12-08T01:24:13.929Z,100187.44
2022-12-08T01:26:42.042Z,100186.56
2022-12-08T01:29:10.349Z,100190.06
2022-12-08T01:31:40.372Z,100169.91
2022-12-08T01:34:09.142Z,100168.19
2022-12-08T01:36:38.439Z,100153.28
2022-12-08T01:39:11.977Z,100171.66
2022-12-08T01:41:40.638Z,100153.28
2022-12-08T01:44:45.882Z,100162.03
2022-12-08T01:47:15.333Z,100157.66
2022-12-08T01:49:43.587Z,100163.78
2022-12-08T01:52:17.528Z,100156.78
2022-12-08T01:54:50.366Z,100165.56
2022-12-08T01:57:22.452Z,100156.78
2022-12-08T01:59:55.698Z,100158.53
2022-12-08T02:02:28.757Z,100143.66
2022-12-08T02:04:56.876Z,100140.16
2022-12-08T02:07:25.366Z,100152.41
2022-12-08T02:09:54.637Z,100139.28
2022-12-08T02:12:22.739Z,100144.53
2022-12-08T02:14:50.857Z,100142.78
2022-12-08T02:17:36.119Z,100142.78
2022-12-08T02:20:27.295Z,100138.38
2022-12-08T02:23:02.255Z,100138.38
2022-12-08T02:25:42.719Z,100135.78
2022-12-08T02:28:40.341Z,100126.16
2022-12-08T02:31:19.411Z,100106.91
2022-12-08T02:34:19.217Z,100120.00
2022-12-08T02:36:55.160Z,100121.75
2022-12-08T02:39:34.227Z,100110.41
2022-12-08T02:42:10.995Z,100094.63
2022-12-08T02:44:43.110Z,100111.25
2022-12-08T02:47:14.358Z,100113.03
2022-12-08T02:49:43.921Z,100100.75
2022-12-08T02:52:45.656Z,100105.13
2022-12-08T02:55:24.202Z,100109.50
2022-12-08T02:58:19.563Z,100105.13
2022-12-08T03:01:06.693Z,100108.63
2022-12-08T03:03:46.731Z,100097.25
2022-12-08T03:06:26.592Z,100101.63
2022-12-08T03:08:59.543Z,100102.50
2022-12-08T03:11:34.133Z,100098.09
2022-12-08T03:14:05.784Z,100094.63
2022-12-08T03:16:35.972Z,100093.75
2022-12-08T03:19:10.084Z,100092.00
2022-12-08T03:21:42.296Z,100087.59
2022-12-08T03:24:12.187Z,100086.75
2022-12-08T03:26:46.875Z,100091.09
2022-12-08T03:29:15.416Z,100085.84
2022-12-08T03:31:47.820Z,100083.22
2022-12-08T03:34:18.027Z,100077.09
2022-12-08T03:36:47.547Z,100079.72
2022-12-08T03:39:15.714Z,100078.84
2022-12-08T03:41:43.848Z,100077.94
2022-12-08T03:44:11.903Z,100080.56
2022-12-08T03:46:39.825Z,100076.22
2022-12-08T03:49:07.804Z,100069.19
2022-12-08T03:51:35.798Z,100068.31
2022-12-08T03:54:05.275Z,100063.94
2022-12-08T03:56:34.937Z,100063.06
2022-12-08T03:59:03.955Z,100066.53
2022-12-08T04:01:32.140Z,100062.16
2022-12-08T04:04:00.100Z,100055.19
2022-12-08T04:06:28.131Z,100060.44
2022-12-08T04:08:56.075Z,100051.66
2022-12-08T04:11:25.441Z,100049.03
2022-12-08T04:13:53.437Z,100045.53
2022-12-08T04:16:24.592Z,100042.88
2022-12-08T04:18:52.644Z,100042.00
2022-12-08T04:21:20.944Z,100043.78
2022-12-08T04:23:49.138Z,100032.38
2022-12-08T04:26:17.753Z,100033.25
2022-12-08T04:28:47.183Z,100039.38
2022-12-08T04:31:15.308Z,100040.25
2022-12-08T04:33:43.343Z,100035.03
2022-12-08T04:36:11.607Z,100035.00
2022-12-08T04:38:39.572Z,100028.03
2022-12-08T04:41:07.819Z,100035.00
2022-12-08T04:43:36.833Z,100024.53
2022-12-08T04:46:09.119Z,100031.50
2022-12-08T04:48:38.574Z,100033.28
2022-12-08T04:51:07.214Z,100023.63
2022-12-08T04:53:35.317Z,100028.03
2022-12-08T04:56:03.238Z,100016.59
2022-12-08T04:58:31.163Z,100014.00
2022-12-08T05:00:59.193Z,100013.13
2022-12-08T05:03:28.952Z,100014.88
2022-12-08T05:05:57.101Z,99999.97
2022-12-08T05:08:25.200Z,100014.88
2022-12-08T05:10:53.223Z,100017.47
2022-12-08T05:13:21.171Z,100032.38
2022-12-08T05:15:49.188Z,100028.84
2022-12-08T05:18:17.278Z,100038.50
2022-12-08T05:20:46.580Z,100030.63
2022-12-08T05:23:14.521Z,100035.00
2022-12-08T05:25:42.447Z,100042.00
2022-12-08T05:28:39.504Z,100040.28
2022-12-08T05:30:58.367Z,100037.66
2022-12-08T05:33:26.394Z,100038.53
2022-12-08T05:35:55.682Z,100035.00
2022-12-08T05:38:23.691Z,100034.16
2022-12-08T05:40:51.682Z,100039.38
2022-12-08T05:43:19.712Z,100045.53
2022-12-08T05:45:47.773Z,100039.41
2022-12-08T05:48:15.958Z,100031.56
2022-12-08T05:50:47.224Z,100040.31
2022-12-08T05:53:16.964Z,100045.56
2022-12-08T05:55:45.082Z,100039.44
2022-12-08T05:58:14.752Z,100043.78
2022-12-08T06:00:43.118Z,100042.94
2022-12-08T06:03:12.810Z,100039.44
2022-12-08T06:05:41.867Z,100045.56
2022-12-08T06:08:10.696Z,100048.19
2022-12-08T06:10:40.727Z,100044.72
2022-12-08T06:13:08.749Z,100049.06
2022-12-08T06:15:37.133Z,100049.06
2022-12-08T06:18:06.208Z,100047.34
2022-12-08T06:20:34.579Z,100049.97
2022-12-08T06:23:03.479Z,100052.56
2022-12-08T06:25:31.668Z,100051.69
2022-12-08T06:28:00.987Z,100056.97
2022-12-08T06:30:28.947Z,100059.56
2022-12-08T06:32:57.002Z,100049.94
2022-12-08T06:35:24.940Z,100054.31
2022-12-08T06:37:52.917Z,100057.84
2022-12-08T06:40:21.089Z,100057.81
2022-12-08T06:42:49.042Z,100052.56
2022-12-08T06:45:19.178Z,100064.81
2022-12-08T06:47:47.157Z,100062.19
2022-12-08T06:50:15.591Z,100067.44
2022-12-08T06:52:54.183Z,100063.94
2022-12-08T06:55:51.243Z,100063.06
2022-12-08T06:58:15.672Z,100061.28
2022-12-08T07:00:45.006Z,100063.06
2022-12-08T07:03:14.743Z,100065.69
2022-12-08T07:05:42.776Z,100063.94
2022-12-08T07:08:10.809Z,100063.06
2022-12-08T07:10:39.879Z,100065.69
2022-12-08T07:13:07.879Z,100071.81
2022-12-08T07:15:35.868Z,100068.31
2022-12-08T07:18:05.219Z,100066.53
2022-12-08T07:20:33.260Z,100066.53
2022-12-08T07:23:01.197Z,100064.81
2022-12-08T07:25:29.273Z,100053.41
2022-12-08T07:27:57.322Z,100070.06
2022-12-08T07:30:25.372Z,100058.66
2022-12-08T07:32:53.487Z,100063.00
2022-12-08T07:35:23.147Z,100064.78
2022-12-08T07:37:51.290Z,100073.53
2022-12-08T07:40:19.360Z,100067.44
2022-12-08T07:42:47.420Z,100069.19
2022-12-08T07:45:15.503Z,100070.91
2022-12-08T07:47:43.460Z,100067.44
2022-12-08T07:50:12.118Z,100063.91
2022-12-08T07:52:41.546Z,100070.03
2022-12-08T07:55:10.604Z,100065.66
2022-12-08T07:57:38.689Z,100074.44
2022-12-08T08:00:08.289Z,100076.22
2022-12-08T08:02:36.878Z,100072.69
2022-12-08T08:05:05.371Z,100072.69
2022-12-08T08:07:33.317Z,100077.06
2022-12-08T08:10:03.150Z,100051.75
2022-12-08T08:12:32.627Z,100085.81
2022-12-08T08:15:01.348Z,100089.38
2022-12-08T08:17:30.041Z,100092.00
2022-12-08T08:19:58.476Z,100091.09
2022-12-08T08:22:27.224Z,100092.88
2022-12-08T08:24:55.577Z,100092.88
2022-12-08T08:27:25.117Z,100091.13
2022-12-08T08:29:53.197Z,100091.13
2022-12-08T08:32:21.631Z,100098.13
2022-12-08T08:34:49.661Z,100096.38
2022-12-08T08:37:17.739Z,100097.25
2022-12-08T08:39:45.778Z,100097.25
2022-12-08T08:42:13.837Z,100099.00
2022-12-08T08:44:43.193Z,100095.50
2022-12-08T08:47:11.163Z,100101.63
2022-12-08T08:49:39.216Z,100103.38
2022-12-08T08:52:07.619Z,100105.13
2022-12-08T08:54:35.730Z,100103.38
2022-12-08T08:57:03.916Z,100110.38
2022-12-08T08:59:32.189Z,100106.00
2022-12-08T09:02:01.708Z,100099.03
2022-12-08T09:04:29.864Z,100103.38
2022-12-08T09:06:57.861Z,100113.91
2022-12-08T09:09:25.870Z,100108.66
2022-12-08T09:11:55.215Z,100102.50
2022-12-08T09:14:24.199Z,100102.53
2022-12-08T09:16:52.199Z,100110.41
2022-12-08T09:19:21.605Z,100113.03
2022-12-08T09:21:49.576Z,100110.41
2022-12-08T09:24:17.751Z,100114.78
2022-12-08T09:26:46.898Z,100120.03
2022-12-08T09:29:14.932Z,100113.91
2022-12-08T09:31:43.356Z,100117.41
2022-12-08T09:34:12.140Z,100115.66
2022-12-08T09:36:41.726Z,100120.91
2022-12-08T09:39:09.759Z,100120.03
2022-12-08T09:41:48.324Z,100120.91
2022-12-08T09:44:45.254Z,100120.00
2022-12-08T09:47:19.600Z,100119.13
2022-12-08T09:49:53.877Z,100120.88
2022-12-08T09:52:26.940Z,100117.41
2022-12-08T09:54:59.337Z,100120.88
2022-12-08T09:57:27.386Z,100123.47
2022-12-08T10:00:00.737Z,100125.25
2022-12-08T10:02:30.953Z,100132.25
2022-12-08T10:05:00.049Z,100124.34
2022-12-08T10:07:39.050Z,100129.59
2022-12-08T10:10:21.253Z,100130.44
2022-12-08T10:12:55.297Z,100132.25
2022-12-08T10:15:42.807Z,100136.59
2022-12-08T10:18:15.960Z,100141.88
2022-12-08T10:20:46.086Z,100126.13
2022-12-08T10:23:26.279Z,100131.38
2022-12-08T10:26:01.595Z,100137.50
2022-12-08T10:28:29.701Z,100120.03
2022-12-08T10:30:57.806Z,100129.63
2022-12-08T10:33:25.863Z,100133.13
2022-12-08T10:35:56.353Z,100130.47
2022-12-08T10:38:30.472Z,100135.75
2022-12-08T10:41:04.350Z,100133.09
2022-12-08T10:43:34.235Z,100133.09
2022-12-08T10:46:13.579Z,100131.31
2022-12-08T10:48:52.775Z,100133.94
2022-12-08T10:51:26.499Z,100124.28
2022-12-08T10:53:56.171Z,100130.38
2022-12-08T10:56:27.479Z,100131.25
2022-12-08T10:59:17.717Z,100135.63
2022-12-08T11:01:49.265Z,100138.34
2022-12-08T11:04:20.309Z,100132.22
2022-12-08T11:06:49.363Z,100130.47
2022-12-08T11:09:38.718Z,100138.38
2022-12-08T11:12:15.214Z,100139.25
2022-12-08T11:14:52.081Z,100141.00
2022-12-08T11:17:27.222Z,100142.75
2022-12-08T11:20:00.498Z,100146.28
2022-12-08T11:22:32.286Z,100147.16
2022-12-08T11:25:11.829Z,100145.41
2022-12-08T11:27:42.034Z,100136.63
2022-12-08T11:30:16.985Z,100144.53
2022-12-08T11:32:47.560Z,100145.34
2022-12-08T11:35:23.966Z,100138.34
2022-12-08T11:37:52.080Z,100143.59
2022-12-08T11:40:25.817Z,100140.13
2022-12-08T11:43:03.380Z,100140.09
2022-12-08T11:45:35.944Z,100145.34
2022-12-08T11:48:13.364Z,100145.38
2022-12-08T11:50:48.465Z,100147.97
2022-12-08T11:53:27.913Z,100145.34
2022-12-08T11:56:01.493Z,100142.69
2022-12-08T11:58:39.382Z,100134.72
2022-12-08T12:01:09.609Z,100139.13
2022-12-08T12:03:42.635Z,100136.47
2022-12-08T12:09:19.859Z,100142.63
2022-12-08T12:12:16.644Z,100138.28
2022-12-08T12:15:16.492Z,100141.75
2022-12-08T12:17:49.804Z,100142.59
2022-12-08T12:20:22.357Z,100139.97
2022-12-08T12:22:56.975Z,100148.78
2022-12-08T12:25:27.188Z,100144.44
2022-12-08T12:28:00.864Z,100130.47
2022-12-08T12:30:34.860Z,100142.69
2022-12-08T12:33:03.287Z,100150.59
2022-12-08T12:35:35.586Z,100154.06
2022-12-08T12:38:28.292Z,100152.34
2022-12-08T12:41:02.192Z,100150.63
2022-12-08T12:43:34.522Z,100148.84
2022-12-08T12:46:41.145Z,100151.44
2022-12-08T12:49:48.641Z,100148.84
2022-12-08T12:52:45.049Z,100156.72
2022-12-08T12:55:52.076Z,100157.59
2022-12-08T12:58:37.352Z,100154.09
2022-12-08T13:01:50.544Z,100151.47
2022-12-08T13:04:18.825Z,100153.22
2022-12-08T13:06:49.651Z,100122.59
2022-12-08T13:09:22.468Z,100130.44
2022-12-08T13:11:54.177Z,100160.16
2022-12-08T13:14:35.031Z,100154.88
2022-12-08T13:17:11.019Z,100155.75
2022-12-08T13:19:41.365Z,100154.03
2022-12-08T13:22:48.185Z,100154.03
2022-12-08T13:25:48.142Z,100150.53
2022-12-08T13:28:22.570Z,100153.19
2022-12-08T13:30:51.600Z,100155.81
2022-12-08T13:33:26.714Z,100157.53
2022-12-08T13:36:03.144Z,100155.81
2022-12-08T13:38:35.536Z,100139.22
2022-12-08T13:41:10.135Z,100161.06
2022-12-08T13:44:10.201Z,100159.34
2022-12-08T13:53:49.356Z,100166.31
2022-12-08T13:56:51.215Z,100163.69
2022-12-08T13:58:19.156Z,100164.53
2022-12-08T14:00:59.515Z,100154.94
2022-12-08T14:03:27.670Z,100168.94
2022-12-08T14:06:13.390Z,100172.44
2022-12-08T14:09:05.074Z,100170.72
2022-12-08T14:11:37.143Z,100169.81
2022-12-08T14:14:09.115Z,100173.31
2022-12-08T14:16:40.091Z,100174.19
2022-12-08T14:19:17.641Z,100170.69
2022-12-08T14:21:58.314Z,100168.97
2022-12-08T14:24:27.600Z,100171.59
2022-12-08T14:26:58.694Z,100168.09
2022-12-08T14:29:38.842Z,100165.50
2022-12-08T14:32:20.338Z,100173.38
2022-12-08T14:34:53.863Z,100179.53
2022-12-08T14:37:24.692Z,100183.00
2022-12-08T14:39:53.455Z,100194.41
2022-12-08T14:42:24.497Z,100193.53
2022-12-08T14:45:01.909Z,100190.91
2022-12-08T14:47:31.951Z,100194.38
2022-12-08T14:50:00.589Z,100202.28
2022-12-08T14:52:31.283Z,100206.66
2022-12-08T14:55:00.278Z,100214.53
2022-12-08T14:57:36.365Z,100218.03
2022-12-08T15:00:20.815Z,100221.56
2022-12-08T15:02:49.287Z,100221.56
2022-12-08T15:05:21.873Z,100216.31
2022-12-08T15:07:53.790Z,100217.16
2022-12-08T15:10:25.586Z,100223.31
2022-12-08T15:13:22.637Z,100224.19
2022-12-08T15:15:53.207Z,100214.56
2022-12-08T15:18:23.817Z,100211.06
2022-12-08T15:20:54.526Z,100208.44
2022-12-08T15:23:27.642Z,100218.06
2022-12-08T15:25:56.721Z,100222.44
2022-12-08T15:28:30.123Z,100227.69
2022-12-08T15:30:58.963Z,100230.31
2022-12-08T15:33:27.710Z,100236.47
2022-12-08T15:35:55.860Z,100243.47
2022-12-08T15:38:27.018Z,100239.06
2022-12-08T15:40:55.895Z,100237.31
2022-12-08T15:43:24.139Z,100230.31
2022-12-08T15:46:01.152Z,100238.22
2022-12-08T15:48:30.883Z,100240.84
2022-12-08T15:50:59.320Z,100250.47
2022-12-08T15:53:28.790Z,100250.47
2022-12-08T15:56:26.850Z,100246.94
2022-12-08T15:58:53.495Z,100245.19
2022-12-08T16:01:22.780Z,100242.59
2022-12-08T16:09:33.729Z,100243.47
2022-12-08T16:12:19.780Z,100246.09
2022-12-08T16:17:37.832Z,100254.84
2022-12-08T16:20:09.381Z,100254.84
2022-12-08T16:22:56.361Z,100245.22
2022-12-08T16:25:30.772Z,100255.72
2022-12-08T16:30:52.870Z,100261.84
2022-12-08T16:33:21.093Z,100259.22
2022-12-08T16:35:49.181Z,100268.00
2022-12-08T16:38:17.594Z,100265.38
2022-12-08T16:41:05.445Z,100266.25
2022-12-08T16:43:34.497Z,100260.97
2022-12-08T16:46:02.610Z,100263.59
2022-12-08T16:48:30.849Z,100275.00
2022-12-08T16:50:58.780Z,100268.84
2022-12-08T16:53:26.772Z,100272.34
2022-12-08T16:55:56.084Z,100270.56
2022-12-08T16:58:24.056Z,100275.81
2022-12-08T17:00:52.819Z,100274.06
2022-12-08T17:03:20.931Z,100274.94
2022-12-08T17:05:48.945Z,100284.56
2022-12-08T17:08:17.092Z,100284.56
2022-12-08T17:11:05.123Z,100282.81
2022-12-08T17:13:34.625Z,100284.56
2022-12-08T17:16:02.973Z,100281.94
2022-12-08T17:18:31.046Z,100284.59
2022-12-08T17:20:59.049Z,100292.44
2022-12-08T17:23:27.151Z,100287.22
2022-12-08T17:25:59.713Z,100281.06
2022-12-08T17:28:58.297Z,100280.22
2022-12-08T17:31:17.615Z,100281.94
2022-12-08T17:33:45.897Z,100267.94
2022-12-08T17:36:16.830Z,100281.06
2022-12-08T17:38:45.736Z,100286.28
2022-12-08T17:41:13.760Z,100280.16
2022-12-08T17:43:41.981Z,100287.16
2022-12-08T17:46:09.991Z,100291.50
2022-12-08T17:48:39.453Z,100288.03
2022-12-08T17:51:10.160Z,100290.66
2022-12-08T17:53:39.999Z,100285.41
2022-12-08T17:56:15.877Z,100282.78
2022-12-08T17:58:45.710Z,100280.16
2022-12-08T18:01:15.694Z,100283.69
2022-12-08T18:03:45.150Z,100283.66
2022-12-08T18:06:14.069Z,100276.63
2022-12-08T18:08:42.075Z,100275.75
2022-12-08T18:11:15.194Z,100272.22
2022-12-08T18:13:43.349Z,100271.28
2022-12-08T18:16:11.547Z,100267.75
2022-12-08T18:18:39.642Z,100274.75
2022-12-08T18:21:09.637Z,100272.19
2022-12-08T18:23:39.036Z,100273.09
2022-12-08T18:26:08.047Z,100270.50
2022-12-08T18:28:36.298Z,100270.50
2022-12-08T18:31:09.668Z,100270.50
2022-12-08T18:33:38.137Z,100274.91
2022-12-08T18:36:10.369Z,100279.28
2022-12-08T18:38:38.531Z,100278.44
2022-12-08T18:41:08.011Z,100288.03
2022-12-08T18:43:36.878Z,100281.94
2022-12-08T18:46:07.613Z,100290.72
2022-12-08T18:48:35.845Z,100298.59
2022-12-08T18:51:04.158Z,100291.56
2022-12-08T18:53:33.519Z,100288.94
2022-12-08T18:56:01.507Z,100286.31
2022-12-08T18:58:29.516Z,100285.47
2022-12-08T19:00:57.568Z,100288.09
2022-12-08T19:03:25.815Z,100295.09
2022-12-08T19:06:03.062Z,100301.22
2022-12-08T19:08:31.620Z,100297.72
2022-12-08T19:11:01.199Z,100297.72
2022-12-08T19:13:29.286Z,100296.88
2022-12-08T19:15:57.646Z,100295.09
2022-12-08T19:18:25.593Z,100298.59
2022-12-08T19:20:56.779Z,100292.47
2022-12-08T19:23:24.832Z,100295.09
2022-12-08T19:25:52.780Z,100295.97
2022-12-08T19:28:22.262Z,100296.81
2022-12-08T19:30:50.276Z,100291.56
2022-12-08T19:33:18.341Z,100295.91
2022-12-08T19:35:52.269Z,100295.91
2022-12-08T19:38:21.003Z,100290.66
2022-12-08T19:41:06.502Z,100291.56
2022-12-08T19:43:53.314Z,100293.28
2022-12-08T19:46:21.590Z,100292.41
2022-12-08T19:48:49.622Z,100294.13
2022-12-08T19:51:17.611Z,100308.09
2022-12-08T19:53:47.850Z,100302.84
2022-12-08T19:56:16.155Z,100303.69
2022-12-08T19:58:45.478Z,100309.78
2022-12-08T20:01:13.567Z,100309.78
2022-12-08T20:03:41.709Z,100309.78
2022-12-08T20:06:14.173Z,100310.59
2022-12-08T20:08:44.899Z,100314.09
2022-12-08T20:11:17.032Z,100314.94
2022-12-08T20:13:47.723Z,100328.88
2022-12-08T20:16:17.204Z,100322.69
2022-12-08T20:18:47.654Z,100320.91
2022-12-08T20:21:15.724Z,100326.13
2022-12-08T20:23:45.411Z,100330.50
2022-12-08T20:26:14.225Z,100327.88
2022-12-08T20:28:42.231Z,100325.25
2022-12-08T20:31:18.592Z,100320.00
2022-12-08T20:33:46.763Z,100311.22
2022-12-08T20:36:17.543Z,100320.88
2022-12-08T20:38:45.780Z,100329.63
2022-12-08T20:41:16.006Z,100324.44
2022-12-08T20:43:44.393Z,100328.78
2022-12-08T20:46:16.461Z,100326.13
2022-12-08T20:48:45.234Z,100327.03
2022-12-08T20:51:14.265Z,100333.13
2022-12-08T20:53:42.470Z,100333.97
2022-12-08T20:56:15.760Z,100333.97
2022-12-08T20:58:44.120Z,100329.66
2022-12-08T21:01:15.429Z,100330.56
2022-12-08T21:03:44.676Z,100331.41
2022-12-08T21:06:13.481Z,100331.47
2022-12-08T21:08:42.311Z,100330.63
2022-12-08T21:11:11.733Z,100317.53
2022-12-08T21:13:40.479Z,100324.59
2022-12-08T21:16:12.157Z,100335.06
2022-12-08T21:18:41.892Z,100320.19
2022-12-08T21:21:12.752Z,100323.72
2022-12-08T21:23:41.407Z,100322.81
2022-12-08T21:26:13.717Z,100327.13
2022-12-08T21:28:42.685Z,100322.72
2022-12-08T21:31:12.185Z,100334.09
2022-12-08T21:33:42.151Z,100333.19
2022-12-08T21:36:16.245Z,100331.41
2022-12-08T21:38:45.005Z,100331.34
2022-12-08T21:41:14.613Z,100323.59
2022-12-08T21:43:43.397Z,100341.06
2022-12-08T21:46:16.191Z,100332.25
2022-12-08T21:48:45.878Z,100333.97
2022-12-08T21:51:13.957Z,100337.38
2022-12-08T21:53:42.053Z,100328.53
2022-12-08T21:56:11.085Z,100337.31
2022-12-08T21:58:39.814Z,100334.75
2022-12-08T22:01:08.642Z,100340.88
2022-12-08T22:03:37.780Z,100340.03
2022-12-08T22:06:08.520Z,100341.72
2022-12-08T22:08:36.843Z,100349.59
2022-12-08T22:11:06.084Z,100348.72
2022-12-08T22:13:35.110Z,100354.91
2022-12-08T22:16:06.667Z,100353.16
2022-12-08T22:18:36.138Z,100358.41
2022-12-08T22:21:10.958Z,100356.63
2022-12-08T22:23:39.248Z,100361.00
2022-12-08T22:26:08.688Z,100366.22
2022-12-08T22:28:38.588Z,100360.13
2022-12-08T22:31:11.448Z,100363.66
2022-12-08T22:33:40.268Z,100360.16
2022-12-08T22:36:14.855Z,100365.44
2022-12-08T22:38:43.052Z,100360.22
2022-12-08T22:41:11.273Z,100363.69
2022-12-08T22:43:39.569Z,100364.59
2022-12-08T22:46:11.791Z,100360.22
2022-12-08T22:48:40.499Z,100359.38
2022-12-08T22:51:10.339Z,100354.16
2022-12-08T22:53:38.712Z,100356.75
2022-12-08T22:56:07.521Z,100359.38
2022-12-08T22:58:35.902Z,100355.00
2022-12-08T23:01:04.270Z,100348.03
2022-12-08T23:03:32.901Z,100362.00
2022-12-08T23:06:01.318Z,100355.00
2022-12-08T23:08:30.892Z,100357.63
2022-12-08T23:10:59.331Z,100355.00
2022-12-08T23:13:27.511Z,100360.25
2022-12-08T23:15:55.760Z,100355.91
2022-12-08T23:18:23.757Z,100357.63
2022-12-08T23:20:51.786Z,100352.44
2022-12-08T23:23:19.728Z,100348.03
2022-12-08T23:25:49.337Z,100336.66
2022-12-08T23:28:17.320Z,100348.06
2022-12-08T23:30:45.299Z,100340.16
2022-12-08T23:33:13.395Z,100339.25
2022-12-08T23:35:41.423Z,100341.00
2022-12-08T23:38:09.447Z,100340.97
2022-12-08T23:40:37.646Z,100333.97
2022-12-08T23:43:07.270Z,100327.88
2022-12-08T23:45:35.344Z,100333.97
2022-12-08T23:48:03.602Z,100336.56
2022-12-08T23:50:31.626Z,100335.69
2022-12-08T23:52:59.772Z,100336.56
2022-12-08T23:55:27.778Z,100339.06
2022-12-08T23:57:56.122Z,100341.66
